Time,TemperatureF,DewpointF,PressureIn,WindDirection,WindDirectionDegrees,WindSpeedMPH,WindSpeedGustMPH,Humidity,HourlyPrecipIn,Conditions,Clouds,dailyrainin,SoftwareType,DateUTC
2013-06-19 00:06:00,77.2,76.0,29.91,WSW,249,0.0,6.0,95,0.00,,,0.00,weatherlink.com 1.10,2013-06-19 04:06:00,
2013-06-19 00:21:00,77.4,76.0,29.91,West,269,1.0,4.0,95,0.00,,,0.00,weatherlink.com 1.10,2013-06-19 04:21:00,
2013-06-19 00:36:00,77.6,76.0,29.91,SW,226,2.0,4.0,95,0.00,,,0.00,weatherlink.com 1.10,2013-06-19 04:36:00,
2013-06-19 00:51:00,77.7,76.0,29.91,WSW,246,1.0,4.0,95,0.00,,,0.00,weatherlink.com 1.10,2013-06-19 04:51:00,
2013-06-19 01:06:00,77.8,76.0,29.91,WSW,243,1.0,4.0,95,0.00,,,0.00,weatherlink.com 1.10,2013-06-19 05:06:00,
2013-06-19 01:21:00,77.8,76.0,29.90,WSW,256,0.0,5.0,95,0.00,,,0.00,weatherlink.com 1.10,2013-06-19 05:21:00,
2013-06-19 01:36:00,78.0,77.0,29.90,South,173,2.0,5.0,95,0.00,,,0.00,weatherlink.com 1.10,2013-06-19 05:36:00,
2013-06-19 01:51:00,78.2,76.0,29.90,SW,231,1.0,6.0,94,0.00,,,0.00,weatherlink.com 1.10,2013-06-19 05:51:00,
2013-06-19 02:06:00,78.3,77.0,29.90,WSW,243,3.0,5.0,94,0.00,,,0.00,weatherlink.com 1.10,2013-06-19 06:06:00,
2013-06-19 02:21:00,78.3,77.0,29.90,NNE,27,0.0,5.0,94,0.00,,,0.00,weatherlink.com 1.10,2013-06-19 06:21:00,
2013-06-19 02:36:00,78.2,76.0,29.90,SW,225,0.0,5.0,94,0.00,,,0.00,weatherlink.com 1.10,2013-06-19 06:36:00,
2013-06-19 02:51:00,78.0,77.0,29.90,SW,236,2.0,7.0,95,0.00,,,0.00,weatherlink.com 1.10,2013-06-19 06:51:00,
2013-06-19 03:06:00,78.0,77.0,29.89,SW,228,1.0,4.0,95,0.00,,,0.00,weatherlink.com 1.10,2013-06-19 07:06:00,
2013-06-19 03:21:00,78.0,77.0,29.89,SW,224,1.0,2.0,95,0.00,,,0.00,weatherlink.com 1.10,2013-06-19 07:21:00,
2013-06-19 03:36:00,78.0,77.0,29.89,WSW,248,1.0,7.0,95,0.00,,,0.00,weatherlink.com 1.10,2013-06-19 07:36:00,
2013-06-19 03:51:00,78.0,77.0,29.89,SW,217,0.0,2.0,96,0.00,,,0.00,weatherlink.com 1.10,2013-06-19 07:51:00,
2013-06-19 04:06:00,77.9,76.0,29.89,WSW,238,2.0,3.0,95,0.00,,,0.00,weatherlink.com 1.10,2013-06-19 08:06:00,
2013-06-19 04:21:00,77.8,76.0,29.89,WSW,250,0.0,2.0,95,0.00,,,0.00,weatherlink.com 1.10,2013-06-19 08:21:00,
2013-06-19 04:36:00,77.8,76.0,29.89,SE,138,0.0,4.0,95,0.00,,,0.00,weatherlink.com 1.10,2013-06-19 08:36:00,
2013-06-19 04:51:00,77.7,76.0,29.90,WSW,246,0.0,2.0,94,0.00,,,0.00,weatherlink.com 1.10,2013-06-19 08:51:00,
2013-06-19 05:06:00,77.6,76.0,29.90,ESE,119,0.0,2.0,93,0.00,,,0.00,weatherlink.com 1.10,2013-06-19 09:06:00,
2013-06-19 05:21:00,77.4,75.0,29.90,NW,315,0.0,3.0,93,0.00,,,0.00,weatherlink.com 1.10,2013-06-19 09:21:00,
2013-06-19 05:36:00,77.2,75.0,29.91,WSW,250,1.0,4.0,92,0.00,,,0.00,weatherlink.com 1.10,2013-06-19 09:36:00,
2013-06-19 05:51:00,77.0,75.0,29.91,WSW,254,3.0,3.0,92,0.00,,,0.00,weatherlink.com 1.10,2013-06-19 09:51:00,
2013-06-19 06:06:00,76.9,74.0,29.92,NNW,329,1.0,4.0,91,0.00,,,0.00,weatherlink.com 1.10,2013-06-19 10:06:00,
2013-06-19 06:21:00,76.7,74.0,29.92,NW,308,0.0,2.0,91,0.00,,,0.00,weatherlink.com 1.10,2013-06-19 10:21:00,
2013-06-19 06:36:00,76.3,74.0,29.92,WNW,288,0.0,2.0,92,0.00,,,0.00,weatherlink.com 1.10,2013-06-19 10:36:00,
2013-06-19 06:51:00,76.2,74.0,29.93,WNW,301,0.0,2.0,91,0.00,,,0.00,weatherlink.com 1.10,2013-06-19 10:51:00,
2013-06-19 07:06:00,76.4,74.0,29.94,WNW,285,0.0,3.0,91,0.00,,,0.00,weatherlink.com 1.10,2013-06-19 11:06:00,
2013-06-19 07:21:00,76.8,74.0,29.95,SW,232,2.0,4.0,90,0.00,,,0.00,weatherlink.com 1.10,2013-06-19 11:21:00,
2013-06-19 07:36:00,76.8,74.0,29.95,NNE,13,1.0,1.0,91,0.00,,,0.00,weatherlink.com 1.10,2013-06-19 11:36:00,
2013-06-19 07:51:00,76.9,74.0,29.95,ENE,63,0.0,1.0,91,0.00,,,0.00,weatherlink.com 1.10,2013-06-19 11:51:00,
2013-06-19 08:07:00,76.8,74.0,29.96,SW,226,0.0,3.0,91,0.00,,,0.00,weatherlink.com 1.10,2013-06-19 12:07:00,
2013-06-19 08:22:00,77.1,74.0,29.96,WSW,245,0.0,1.0,90,0.00,,,0.00,weatherlink.com 1.10,2013-06-19 12:22:00,
2013-06-19 08:37:00,78.2,74.0,29.95,South,187,0.0,3.0,88,0.00,,,0.00,weatherlink.com 1.10,2013-06-19 12:37:00,
2013-06-19 08:52:00,79.3,75.0,29.96,NNW,328,0.0,3.0,86,0.00,,,0.00,weatherlink.com 1.10,2013-06-19 12:52:00,
2013-06-19 09:07:00,79.7,75.0,29.97,WNW,290,0.0,2.0,86,0.00,,,0.00,weatherlink.com 1.10,2013-06-19 13:07:00,
2013-06-19 09:22:00,80.1,75.0,29.97,WNW,294,0.0,3.0,85,0.00,,,0.00,weatherlink.com 1.10,2013-06-19 13:22:00,
2013-06-19 09:37:00,80.2,75.0,29.97,West,260,0.0,2.0,84,0.00,,,0.00,weatherlink.com 1.10,2013-06-19 13:37:00,
2013-06-19 09:52:00,79.9,75.0,29.97,West,260,0.0,2.0,84,0.00,,,0.00,weatherlink.com 1.10,2013-06-19 13:52:00,
2013-06-19 10:07:00,81.4,76.0,29.97,West,281,1.0,3.0,83,0.00,,,0.00,weatherlink.com 1.10,2013-06-19 14:07:00,
2013-06-19 10:22:00,81.5,76.0,29.97,SW,230,0.0,1.0,82,0.00,,,0.00,weatherlink.com 1.10,2013-06-19 14:22:00,
2013-06-19 10:37:00,81.5,75.0,29.98,WSW,238,0.0,1.0,81,0.00,,,0.00,weatherlink.com 1.10,2013-06-19 14:37:00,
2013-06-19 10:52:00,81.3,75.0,29.98,West,271,2.0,2.0,82,0.00,,,0.00,weatherlink.com 1.10,2013-06-19 14:52:00,
2013-06-19 11:22:00,81.5,76.0,29.99,WNW,302,1.0,2.0,82,0.00,,,0.00,weatherlink.com 1.10,2013-06-19 15:22:00,
2013-06-19 11:37:00,81.7,75.0,29.99,ENE,71,1.0,1.0,81,0.00,,,0.00,weatherlink.com 1.10,2013-06-19 15:37:00,
2013-06-19 11:52:00,81.4,75.0,29.99,North,349,1.0,2.0,82,0.00,,,0.00,weatherlink.com 1.10,2013-06-19 15:52:00,
2013-06-19 12:07:00,81.6,75.0,29.99,East,93,3.0,5.0,81,0.00,,,0.00,weatherlink.com 1.10,2013-06-19 16:07:00,
2013-06-19 12:22:00,81.2,75.0,29.99,East,84,0.0,5.0,82,0.00,,,0.00,weatherlink.com 1.10,2013-06-19 16:22:00,
2013-06-19 12:37:00,80.6,75.0,29.99,SE,127,0.0,2.0,82,0.00,,,0.00,weatherlink.com 1.10,2013-06-19 16:37:00,
2013-06-19 12:52:00,78.5,75.0,29.99,SSW,207,0.0,1.0,88,0.35,,,0.35,weatherlink.com 1.10,2013-06-19 16:52:00,
2013-06-19 13:07:00,76.2,74.0,30.00,East,86,0.0,2.0,92,0.74,,,0.74,weatherlink.com 1.10,2013-06-19 17:07:00,
2013-06-19 13:22:00,75.5,74.0,30.00,East,84,0.0,2.0,94,0.75,,,0.75,weatherlink.com 1.10,2013-06-19 17:22:00,
2013-06-19 13:37:00,75.6,74.0,29.99,East,85,1.0,3.0,96,0.77,,,0.77,weatherlink.com 1.10,2013-06-19 17:37:00,
2013-06-19 13:52:00,75.8,75.0,29.99,ESE,103,0.0,2.0,96,0.40,,,0.77,weatherlink.com 1.10,2013-06-19 17:52:00,
2013-06-19 14:07:00,76.0,75.0,29.98,East,87,0.0,1.0,97,0.03,,,0.77,weatherlink.com 1.10,2013-06-19 18:07:00,
2013-06-19 14:22:00,76.4,75.0,29.98,East,95,2.0,2.0,96,0.02,,,0.77,weatherlink.com 1.10,2013-06-19 18:22:00,
2013-06-19 14:36:00,76.3,75.0,29.99,WSW,250,0.0,2.0,96,0.01,,,0.77,weatherlink.com 1.10,2013-06-19 18:36:00,
2013-06-19 14:52:00,77.0,76.0,29.98,East,96,3.0,3.0,97,0.00,,,0.77,weatherlink.com 1.10,2013-06-19 18:52:00,
2013-06-19 15:06:00,77.0,75.0,29.98,East,100,3.0,6.0,94,0.00,,,0.77,weatherlink.com 1.10,2013-06-19 19:06:00,
2013-06-19 15:22:00,76.3,74.0,29.98,SE,132,4.0,7.0,93,0.00,,,0.77,weatherlink.com 1.10,2013-06-19 19:22:00,
2013-06-19 15:37:00,75.7,74.0,29.98,ESE,105,2.0,8.0,93,0.00,,,0.77,weatherlink.com 1.10,2013-06-19 19:37:00,
2013-06-19 15:52:00,75.2,73.0,29.99,South,187,1.0,4.0,94,0.00,,,0.77,weatherlink.com 1.10,2013-06-19 19:52:00,
2013-06-19 16:07:00,74.8,73.0,29.99,East,92,3.0,7.0,94,0.00,,,0.77,weatherlink.com 1.10,2013-06-19 20:07:00,
2013-06-19 16:22:00,74.1,72.0,29.99,ENE,69,1.0,6.0,94,0.02,,,0.79,weatherlink.com 1.10,2013-06-19 20:22:00,
2013-06-19 16:37:00,73.7,72.0,30.00,North,5,0.0,6.0,95,0.04,,,0.81,weatherlink.com 1.10,2013-06-19 20:37:00,
2013-06-19 16:52:00,73.5,72.0,30.00,East,96,5.0,5.0,95,0.09,,,0.86,weatherlink.com 1.10,2013-06-19 20:52:00,
2013-06-19 17:07:00,73.1,72.0,30.00,East,101,1.0,6.0,96,0.11,,,0.88,weatherlink.com 1.10,2013-06-19 21:07:00,
2013-06-19 17:22:00,72.9,72.0,30.00,ENE,77,0.0,4.0,96,0.11,,,0.90,weatherlink.com 1.10,2013-06-19 21:22:00,
2013-06-19 17:37:00,72.9,72.0,30.00,NE,49,2.0,5.0,96,0.12,,,0.93,weatherlink.com 1.10,2013-06-19 21:37:00,
2013-06-19 17:51:00,72.7,72.0,30.00,ESE,106,2.0,4.0,97,0.10,,,0.96,weatherlink.com 1.10,2013-06-19 21:51:00,
2013-06-19 18:07:00,72.9,72.0,30.00,NE,44,1.0,2.0,97,0.11,,,0.99,weatherlink.com 1.10,2013-06-19 22:07:00,
2013-06-19 18:22:00,73.2,72.0,30.00,East,94,1.0,4.0,97,0.09,,,0.99,weatherlink.com 1.10,2013-06-19 22:22:00,
2013-06-19 18:37:00,73.5,73.0,30.01,East,91,0.0,1.0,97,0.06,,,0.99,weatherlink.com 1.10,2013-06-19 22:37:00,
2013-06-19 18:52:00,73.5,73.0,30.02,East,89,1.0,2.0,97,0.04,,,1.00,weatherlink.com 1.10,2013-06-19 22:52:00,
2013-06-19 19:07:00,73.3,72.0,30.01,East,91,0.0,3.0,97,0.01,,,1.00,weatherlink.com 1.10,2013-06-19 23:07:00,
2013-06-19 19:22:00,73.4,73.0,30.00,ENE,75,2.0,10.0,98,0.01,,,1.00,weatherlink.com 1.10,2013-06-19 23:22:00,
2013-06-19 19:38:00,73.5,73.0,30.00,NE,49,2.0,6.0,98,0.01,,,1.00,weatherlink.com 1.10,2013-06-19 23:38:00,
2013-06-19 19:52:00,73.2,72.0,30.01,ESE,103,0.0,8.0,97,0.00,,,1.00,weatherlink.com 1.10,2013-06-19 23:52:00,
2013-06-19 20:08:00,73.0,72.0,30.01,East,96,8.0,8.0,97,0.00,,,1.00,weatherlink.com 1.10,2013-06-20 00:08:00,
2013-06-19 20:23:00,73.0,72.0,30.01,ESE,114,2.0,12.0,97,0.00,,,1.00,weatherlink.com 1.10,2013-06-20 00:23:00,
2013-06-19 20:38:00,73.0,72.0,30.03,ESE,108,2.0,6.0,97,0.01,,,1.01,weatherlink.com 1.10,2013-06-20 00:38:00,
2013-06-19 20:53:00,72.8,72.0,30.04,NE,48,1.0,5.0,97,0.01,,,1.01,weatherlink.com 1.10,2013-06-20 00:53:00,
2013-06-19 21:08:00,72.5,72.0,30.05,SSE,151,0.0,4.0,97,0.01,,,1.01,weatherlink.com 1.10,2013-06-20 01:08:00,
2013-06-19 21:23:00,72.5,72.0,30.05,East,98,0.0,1.0,97,0.03,,,1.04,weatherlink.com 1.10,2013-06-20 01:23:00,
2013-06-19 21:38:00,72.6,72.0,30.05,ESE,112,0.0,1.0,97,0.03,,,1.04,weatherlink.com 1.10,2013-06-20 01:38:00,
2013-06-19 21:53:00,72.8,72.0,30.05,East,94,3.0,8.0,97,0.04,,,1.05,weatherlink.com 1.10,2013-06-20 01:53:00,
2013-06-19 22:08:00,72.7,72.0,30.05,East,92,5.0,11.0,97,0.05,,,1.06,weatherlink.com 1.10,2013-06-20 02:08:00,
2013-06-19 22:23:00,72.6,72.0,30.06,NE,47,1.0,7.0,98,0.02,,,1.06,weatherlink.com 1.10,2013-06-20 02:23:00,
2013-06-19 22:38:00,72.5,72.0,30.06,NE,45,3.0,8.0,98,0.03,,,1.07,weatherlink.com 1.10,2013-06-20 02:38:00,
2013-06-19 22:53:00,72.5,72.0,30.07,ENE,78,3.0,8.0,98,0.13,,,1.18,weatherlink.com 1.10,2013-06-20 02:53:00,
2013-06-19 23:08:00,72.4,72.0,30.06,East,89,0.0,2.0,98,0.38,,,1.44,weatherlink.com 1.10,2013-06-20 03:08:00,
2013-06-19 23:23:00,72.6,72.0,30.07,ESE,106,5.0,11.0,98,0.40,,,1.46,weatherlink.com 1.10,2013-06-20 03:23:00,
2013-06-19 23:38:00,71.9,71.0,30.06,NE,39,3.0,9.0,98,0.42,,,1.49,weatherlink.com 1.10,2013-06-20 03:38:00,
2013-06-19 23:53:00,72.2,72.0,30.07,ENE,63,5.0,13.0,98,0.32,,,1.51,weatherlink.com 1.10,2013-06-20 03:53:00,